Time;durP1;ratioP1;P1;durP2;ratioP2;P2;SDS_P1;SDS_P2;PMS_P1;PMS_P2;Temp;Humidity;BMP_temperature;BMP_pressure;BME280_temperature;BME280_humidity;BME280_pressure;Samples;Min_cycle;Max_cycle;Signal;HPM_P1;HPM_P2
2022/06/17 00:01:32;;;;;;;10.02;3.42;;;;;;;;;;5015436;28;20479;-78
2022/06/17 00:03:58;;;;;;;6.63;3.03;;;;;;;;;;5029665;28;20033;-78
2022/06/17 00:06:25;;;;;;;8.88;3.10;;;;;;;;;;5019265;28;20108;-78
2022/06/17 00:08:53;;;;;;;10.32;3.25;;;;;;;;;;5029433;28;20045;-78
2022/06/17 00:11:22;;;;;;;4.07;2.03;;;;;;;;;;5033149;28;20033;-78
2022/06/17 00:13:48;;;;;;;12.77;2.63;;;;;;;;;;5030568;28;20349;-78
2022/06/17 00:16:16;;;;;;;7.78;2.15;;;;;;;;;;5027911;28;20069;-78
2022/06/17 00:18:43;;;;;;;6.20;2.38;;;;;;;;;;5023469;28;20442;-78
2022/06/17 00:21:38;;;;;;;6.60;2.30;;;;;;;;;;5031438;28;20072;-78
2022/06/17 00:24:30;;;;;;;5.15;2.28;;;;;;;;;;5027550;28;20060;-78
2022/06/17 00:26:56;;;;;;;6.72;2.58;;;;;;;;;;5022754;28;20519;-78
2022/06/17 00:29:24;;;;;;;7.95;2.60;;;;;;;;;;5020125;28;20041;-78
2022/06/17 00:31:50;;;;;;;8.18;2.47;;;;;;;;;;5022129;28;20040;-78
2022/06/17 00:34:16;;;;;;;6.07;2.75;;;;;;;;;;5012275;28;20034;-78
2022/06/17 00:36:43;;;;;;;5.65;2.30;;;;;;;;;;5018817;28;20038;-78
2022/06/17 00:39:14;;;;;;;7.95;2.70;;;;;;;;;;5028139;28;20108;-78
2022/06/17 00:41:40;;;;;;;8.32;3.33;;;;;;;;;;5019338;28;20075;-78
2022/06/17 00:44:18;;;;;;;9.65;2.80;;;;;;;;;;5028717;28;20810;-78
2022/06/17 00:46:47;;;;;;;6.50;2.72;;;;;;;;;;5025726;28;20038;-78
2022/06/17 00:49:22;;;;;;;6.22;2.20;;;;;;;;;;5020465;28;20029;-78
2022/06/17 00:51:59;;;;;;;7.07;3.15;;;;;;;;;;5035244;28;20864;-79
2022/06/17 00:54:28;;;;;;;6.65;3.08;;;;;;;;;;5030010;28;20065;-78
2022/06/17 00:56:54;;;;;;;10.43;3.22;;;;;;;;;;5039340;28;20037;-78
2022/06/17 00:59:21;;;;;;;7.35;2.85;;;;;;;;;;5012449;28;20476;-78
2022/06/17 01:01:51;;;;;;;9.07;3.05;;;;;;;;;;5021462;28;20045;-78
2022/06/17 01:04:20;;;;;;;7.10;2.90;;;;;;;;;;5012339;28;20037;-78
2022/06/17 01:07:00;;;;;;;8.13;3.47;;;;;;;;;;5019427;28;20148;-78
2022/06/17 01:12:15;;;;;;;8.73;3.47;;;;;;;;;;5014297;28;20499;-78
2022/06/17 01:14:42;;;;;;;10.88;4.22;;;;;;;;;;5018745;28;20106;-78
2022/06/17 01:17:10;;;;;;;9.05;3.97;;;;;;;;;;5019346;28;20088;-78
2022/06/17 01:19:44;;;;;;;17.73;5.13;;;;;;;;;;5027852;28;20034;-78
2022/06/17 01:22:16;;;;;;;12.95;5.38;;;;;;;;;;5012184;28;20048;-78
2022/06/17 01:24:43;;;;;;;13.13;5.18;;;;;;;;;;5010829;28;20037;-78
2022/06/17 01:27:09;;;;;;;13.35;5.35;;;;;;;;;;5010808;28;20411;-78
2022/06/17 01:29:35;;;;;;;17.15;6.70;;;;;;;;;;5010966;28;20037;-78
2022/06/17 01:32:02;;;;;;;13.85;6.18;;;;;;;;;;5020068;28;20044;-78
2022/06/17 01:34:28;;;;;;;14.90;6.90;;;;;;;;;;5018428;28;20030;-78
2022/06/17 01:36:55;;;;;;;17.42;7.57;;;;;;;;;;5019611;28;20041;-78
2022/06/17 01:39:22;;;;;;;13.65;7.10;;;;;;;;;;5013043;28;20057;-78
2022/06/17 01:41:49;;;;;;;15.45;7.07;;;;;;;;;;5019537;28;20061;-78
2022/06/17 01:44:35;;;;;;;11.13;6.15;;;;;;;;;;5010964;28;20042;-78
2022/06/17 01:47:04;;;;;;;15.93;6.38;;;;;;;;;;5010264;28;20033;-78
2022/06/17 01:49:53;;;;;;;10.75;6.13;;;;;;;;;;5019911;28;20038;-78
2022/06/17 01:52:26;;;;;;;15.20;5.78;;;;;;;;;;5008057;28;20084;-78
2022/06/17 01:54:58;;;;;;;12.82;5.40;;;;;;;;;;5021852;28;20471;-78
2022/06/17 01:57:30;;;;;;;16.13;5.72;;;;;;;;;;5009852;28;20033;-78
2022/06/17 01:59:58;;;;;;;13.52;5.90;;;;;;;;;;5029541;28;20498;-78
2022/06/17 02:02:24;;;;;;;9.40;4.40;;;;;;;;;;5019557;28;20052;-78
2022/06/17 02:04:54;;;;;;;10.75;3.97;;;;;;;;;;5011577;28;20479;-78
2022/06/17 02:07:23;;;;;;;9.02;4.22;;;;;;;;;;5010052;28;20037;-78
2022/06/17 02:09:50;;;;;;;9.02;4.05;;;;;;;;;;5010538;28;20057;-78
2022/06/17 02:12:17;;;;;;;6.05;3.20;;;;;;;;;;5021388;28;20470;-78
2022/06/17 02:14:45;;;;;;;14.20;3.42;;;;;;;;;;5023450;28;20030;-78
2022/06/17 02:17:11;;;;;;;12.65;4.50;;;;;;;;;;5015138;28;20026;-78
2022/06/17 02:19:39;;;;;;;7.32;3.78;;;;;;;;;;5022763;28;20116;-78
2022/06/17 02:22:08;;;;;;;10.35;3.78;;;;;;;;;;5025975;28;20026;-78
2022/06/17 02:24:34;;;;;;;8.15;3.88;;;;;;;;;;5021966;28;20041;-78
2022/06/17 02:27:01;;;;;;;11.02;4.38;;;;;;;;;;5015431;28;20057;-78
2022/06/17 02:29:30;;;;;;;9.60;3.95;;;;;;;;;;5029919;28;20038;-78
2022/06/17 02:31:58;;;;;;;7.95;4.28;;;;;;;;;;5014766;28;20373;-78
2022/06/17 02:34:24;;;;;;;9.13;4.47;;;;;;;;;;5012644;28;20056;-78
2022/06/17 02:37:03;;;;;;;10.65;3.90;;;;;;;;;;5011640;28;20105;-78
2022/06/17 02:39:29;;;;;;;9.82;4.57;;;;;;;;;;5010819;28;20459;-78
2022/06/17 02:41:55;;;;;;;11.25;4.60;;;;;;;;;;5009929;28;20022;-78
2022/06/17 02:44:26;;;;;;;10.00;4.50;;;;;;;;;;5023631;28;20546;-78
2022/06/17 02:46:54;;;;;;;10.73;4.82;;;;;;;;;;5013693;28;20026;-78
2022/06/17 02:49:25;;;;;;;13.27;4.32;;;;;;;;;;5016260;28;20069;-78
2022/06/17 02:51:51;;;;;;;9.63;3.75;;;;;;;;;;5015456;28;20100;-78
2022/06/17 02:54:21;;;;;;;7.78;3.45;;;;;;;;;;5009774;28;20037;-78
2022/06/17 02:56:53;;;;;;;11.55;3.72;;;;;;;;;;5017392;28;20038;-78
2022/06/17 02:59:21;;;;;;;7.18;3.42;;;;;;;;;;5015647;28;20046;-78
2022/06/17 03:01:49;;;;;;;8.05;3.28;;;;;;;;;;5024987;28;20030;-78
2022/06/17 03:04:16;;;;;;;8.93;3.80;;;;;;;;;;5017655;28;20038;-78
2022/06/17 03:06:46;;;;;;;8.20;3.35;;;;;;;;;;5022297;28;20190;-78
2022/06/17 03:09:17;;;;;;;8.73;3.45;;;;;;;;;;5021774;28;20054;-78
2022/06/17 03:11:44;;;;;;;8.23;3.35;;;;;;;;;;5029144;28;20199;-78
2022/06/17 03:14:12;;;;;;;11.07;4.13;;;;;;;;;;5027022;28;20041;-78
2022/06/17 03:16:38;;;;;;;6.72;3.38;;;;;;;;;;5017806;28;20029;-78
2022/06/17 03:19:04;;;;;;;10.00;3.45;;;;;;;;;;5015029;28;20065;-78
2022/06/17 03:21:30;;;;;;;8.52;3.15;;;;;;;;;;5024705;28;20044;-78
2022/06/17 03:24:16;;;;;;;7.85;3.10;;;;;;;;;;5016704;28;20037;-78
2022/06/17 03:26:45;;;;;;;11.88;3.38;;;;;;;;;;5015612;28;20145;-78
2022/06/17 03:29:12;;;;;;;9.80;3.47;;;;;;;;;;5026594;28;20038;-78
2022/06/17 03:31:40;;;;;;;6.97;3.33;;;;;;;;;;5018892;28;20030;-78
2022/06/17 03:34:19;;;;;;;10.25;3.25;;;;;;;;;;5016998;28;20363;-78
2022/06/17 03:36:47;;;;;;;11.50;3.35;;;;;;;;;;5027681;28;20080;-78
2022/06/17 03:39:23;;;;;;;11.18;4.75;;;;;;;;;;5024946;28;20048;-78
2022/06/17 03:41:55;;;;;;;6.20;3.08;;;;;;;;;;5018304;28;20029;-78
2022/06/17 03:44:23;;;;;;;7.03;3.47;;;;;;;;;;5014956;28;20120;-78
2022/06/17 03:46:52;;;;;;;9.23;3.70;;;;;;;;;;5014777;28;20034;-78
2022/06/17 03:49:20;;;;;;;7.55;3.08;;;;;;;;;;5020894;28;20038;-78
2022/06/17 03:51:50;;;;;;;9.30;3.60;;;;;;;;;;5019991;28;20034;-78
2022/06/17 03:54:16;;;;;;;11.65;3.55;;;;;;;;;;5013113;28;20041;-78
2022/06/17 03:56:44;;;;;;;9.98;3.40;;;;;;;;;;5021084;28;20034;-78
2022/06/17 03:59:15;;;;;;;9.70;3.83;;;;;;;;;;5025658;28;20037;-78
2022/06/17 04:01:44;;;;;;;9.23;4.05;;;;;;;;;;5013221;28;20056;-78
2022/06/17 04:04:13;;;;;;;10.23;4.00;;;;;;;;;;5018873;28;20029;-78
2022/06/17 04:06:41;;;;;;;11.65;4.18;;;;;;;;;;5012743;28;20145;-78
2022/06/17 04:09:14;;;;;;;8.48;4.05;;;;;;;;;;5012438;28;20381;-78
2022/06/17 04:11:42;;;;;;;11.93;4.18;;;;;;;;;;5017211;28;20117;-78
2022/06/17 04:14:26;;;;;;;9.50;4.20;;;;;;;;;;5021651;28;20041;-78
2022/06/17 04:17:22;;;;;;;8.85;3.83;;;;;;;;;;5022670;28;20038;-78
2022/06/17 04:19:51;;;;;;;12.98;4.10;;;;;;;;;;5013775;28;20508;-78
2022/06/17 04:22:36;;;;;;;8.50;4.40;;;;;;;;;;5022429;28;20090;-78
2022/06/17 04:25:04;;;;;;;10.95;3.95;;;;;;;;;;5023843;28;20591;-78
2022/06/17 04:27:56;;;;;;;8.00;3.50;;;;;;;;;;5021759;28;20828;-78
2022/06/17 04:30:19;;;;;;;12.43;4.95;;;;;;;;;;5018524;28;20045;-78
2022/06/17 04:32:46;;;;;;;10.00;4.53;;;;;;;;;;5015906;28;20044;-78
2022/06/17 04:35:15;;;;;;;8.93;4.75;;;;;;;;;;5012336;28;20076;-78
2022/06/17 04:37:41;;;;;;;8.75;4.18;;;;;;;;;;5009829;28;20057;-78
2022/06/17 04:40:15;;;;;;;9.15;4.80;;;;;;;;;;5014249;28;20029;-78
2022/06/17 04:42:42;;;;;;;8.98;4.82;;;;;;;;;;5015371;28;20044;-78
2022/06/17 04:45:19;;;;;;;11.27;5.22;;;;;;;;;;5015929;28;20364;-78
2022/06/17 04:47:45;;;;;;;10.00;4.32;;;;;;;;;;5016034;28;20029;-78
2022/06/17 04:50:12;;;;;;;11.60;4.88;;;;;;;;;;5025088;28;20037;-78
2022/06/17 04:52:41;;;;;;;9.95;4.57;;;;;;;;;;5010446;28;20038;-78
2022/06/17 04:55:11;;;;;;;12.07;4.50;;;;;;;;;;5011703;28;20060;-78
2022/06/17 04:57:38;;;;;;;8.48;3.28;;;;;;;;;;5014550;28;20037;-78
2022/06/17 05:00:05;;;;;;;12.70;4.18;;;;;;;;;;5013873;28;20117;-78
2022/06/17 05:02:32;;;;;;;9.02;3.55;;;;;;;;;;5012259;28;20033;-78
2022/06/17 05:05:01;;;;;;;8.90;3.20;;;;;;;;;;5015112;28;20091;-78
2022/06/17 05:07:30;;;;;;;15.23;4.47;;;;;;;;;;5018273;28;20124;-78
2022/06/17 05:10:02;;;;;;;13.25;4.03;;;;;;;;;;5013994;28;20602;-78
2022/06/17 05:12:34;;;;;;;10.32;4.63;;;;;;;;;;5011295;28;20431;-78
2022/06/17 05:15:00;;;;;;;;;;;;;;;;;;5012402;28;20030;-78
2022/06/17 05:17:26;;;;;;;8.73;3.28;;;;;;;;;;5012374;28;19920;-78
2022/06/17 05:19:53;;;;;;;13.02;4.00;;;;;;;;;;5013850;28;20069;-78
2022/06/17 05:22:24;;;;;;;7.32;3.72;;;;;;;;;;5021612;28;20057;-78
2022/06/17 05:24:51;;;;;;;10.30;3.67;;;;;;;;;;5015780;28;20038;-78
2022/06/17 05:27:17;;;;;;;13.13;3.35;;;;;;;;;;5016799;28;20034;-78
2022/06/17 05:29:43;;;;;;;10.70;3.35;;;;;;;;;;5016890;28;20128;-78
2022/06/17 05:32:11;;;;;;;8.38;3.65;;;;;;;;;;5014141;28;20680;-78
2022/06/17 05:34:37;;;;;;;9.30;3.50;;;;;;;;;;5024179;28;20045;-78
2022/06/17 05:37:03;;;;;;;10.93;3.80;;;;;;;;;;5015954;28;20049;-78
2022/06/17 05:39:29;;;;;;;9.32;3.83;;;;;;;;;;5022147;28;20042;-78
2022/06/17 05:41:55;;;;;;;7.57;3.80;;;;;;;;;;5013240;28;20037;-78
2022/06/17 05:44:21;;;;;;;9.82;4.20;;;;;;;;;;5020279;28;20042;-78
2022/06/17 05:46:47;;;;;;;7.88;4.25;;;;;;;;;;5018661;28;20037;-78
2022/06/17 05:49:14;;;;;;;8.98;4.93;;;;;;;;;;5014065;28;20034;-78
2022/06/17 05:51:40;;;;;;;13.05;4.50;;;;;;;;;;5017655;28;20104;-78
2022/06/17 05:54:06;;;;;;;11.60;4.78;;;;;;;;;;5020565;28;20030;-78
2022/06/17 05:56:32;;;;;;;15.93;5.28;;;;;;;;;;5022030;28;20030;-78
2022/06/17 05:58:58;;;;;;;10.18;5.32;;;;;;;;;;5015983;28;20061;-79
2022/06/17 06:01:24;;;;;;;13.48;6.22;;;;;;;;;;5026999;28;20029;-78
2022/06/17 06:03:50;;;;;;;13.10;6.68;;;;;;;;;;5025820;28;20038;-78
2022/06/17 06:06:16;;;;;;;14.98;6.03;;;;;;;;;;5009156;28;20042;-79
2022/06/17 06:08:42;;;;;;;10.95;4.43;;;;;;;;;;5020287;28;20040;-78
2022/06/17 06:11:08;;;;;;;12.02;4.55;;;;;;;;;;5022308;28;20862;-79
2022/06/17 06:13:34;;;;;;;9.82;4.72;;;;;;;;;;5011003;28;20038;-78
2022/06/17 06:16:01;;;;;;;12.60;4.03;;;;;;;;;;5012092;28;20064;-79
2022/06/17 06:18:29;;;;;;;9.07;4.70;;;;;;;;;;5015509;28;20046;-78
2022/06/17 06:20:55;;;;;;;7.45;3.95;;;;;;;;;;5015660;28;20415;-78
2022/06/17 06:23:21;;;;;;;14.50;4.20;;;;;;;;;;5020501;28;20530;-79
2022/06/17 06:25:47;;;;;;;10.30;4.30;;;;;;;;;;5016618;28;20033;-78
2022/06/17 06:28:16;;;;;;;8.85;3.55;;;;;;;;;;5016190;28;20029;-78
2022/06/17 06:30:42;;;;;;;9.23;3.42;;;;;;;;;;5022111;28;20049;-78
2022/06/17 06:33:09;;;;;;;8.70;3.03;;;;;;;;;;5019375;28;20116;-79
2022/06/17 06:35:37;;;;;;;14.60;3.80;;;;;;;;;;5011706;28;20026;-78
2022/06/17 06:38:03;;;;;;;9.43;3.53;;;;;;;;;;5012856;28;20033;-78
2022/06/17 06:40:30;;;;;;;9.38;3.75;;;;;;;;;;5016773;28;20032;-78
2022/06/17 06:42:56;;;;;;;10.20;3.70;;;;;;;;;;5017721;28;20475;-78
2022/06/17 06:45:23;;;;;;;9.35;3.35;;;;;;;;;;5021194;28;20034;-78
2022/06/17 06:47:50;;;;;;;16.83;3.63;;;;;;;;;;5019764;28;20066;-79
2022/06/17 06:50:19;;;;;;;9.18;3.50;;;;;;;;;;5011563;28;20042;-78
2022/06/17 06:52:45;;;;;;;10.75;4.03;;;;;;;;;;5015179;28;20157;-79
2022/06/17 06:55:11;;;;;;;15.10;4.88;;;;;;;;;;5010501;28;20061;-78
2022/06/17 06:57:53;;;;;;;9.90;4.20;;;;;;;;;;5012308;28;20144;-79
2022/06/17 07:00:19;;;;;;;;;;;;;;;;;;5025540;28;20095;-78
2022/06/17 07:02:45;;;;;;;12.13;4.38;;;;;;;;;;5013509;28;20355;-78
2022/06/17 07:05:11;;;;;;;12.13;4.50;;;;;;;;;;5027514;28;20036;-78
2022/06/17 07:07:38;;;;;;;10.93;4.40;;;;;;;;;;5024220;28;20048;-79
2022/06/17 07:10:05;;;;;;;10.48;4.07;;;;;;;;;;5016384;28;20054;-78
2022/06/17 07:12:31;;;;;;;12.85;3.90;;;;;;;;;;5014757;28;20029;-78
2022/06/17 07:14:57;;;;;;;8.85;4.22;;;;;;;;;;5016783;28;20061;-79
2022/06/17 07:17:23;;;;;;;12.77;4.45;;;;;;;;;;5010669;28;20468;-79
2022/06/17 07:19:49;;;;;;;11.48;4.43;;;;;;;;;;5021598;28;20042;-79
2022/06/17 07:22:15;;;;;;;10.57;4.03;;;;;;;;;;5011814;28;20029;-78
2022/06/17 07:24:41;;;;;;;11.38;4.50;;;;;;;;;;5023205;28;20489;-78
2022/06/17 07:27:07;;;;;;;11.88;4.18;;;;;;;;;;5011870;28;20025;-78
2022/06/17 07:29:33;;;;;;;11.75;4.10;;;;;;;;;;5017733;28;20041;-79
2022/06/17 07:32:00;;;;;;;10.35;4.22;;;;;;;;;;5010236;28;20113;-78
2022/06/17 07:34:26;;;;;;;11.30;4.57;;;;;;;;;;5015228;28;20037;-79
2022/06/17 07:39:57;;;;;;;12.13;5.13;;;;;;;;;;5019631;28;20212;-79
2022/06/17 07:42:25;;;;;;;17.75;4.95;;;;;;;;;;5021194;28;20081;-79
2022/06/17 07:44:52;;;;;;;9.88;4.13;;;;;;;;;;5010598;28;20093;-79
2022/06/17 07:47:19;;;;;;;12.85;4.90;;;;;;;;;;5014707;28;20029;-78
2022/06/17 07:49:45;;;;;;;17.30;5.20;;;;;;;;;;5018271;28;20049;-78
2022/06/17 07:52:12;;;;;;;12.65;4.93;;;;;;;;;;5013337;28;20030;-78
2022/06/17 07:54:38;;;;;;;12.35;4.82;;;;;;;;;;5017828;28;20057;-79
2022/06/17 07:57:04;;;;;;;12.05;4.90;;;;;;;;;;5022745;28;20482;-79
2022/06/17 07:59:30;;;;;;;12.27;5.65;;;;;;;;;;5021995;28;20042;-79
2022/06/17 08:01:56;;;;;;;14.23;4.70;;;;;;;;;;5018792;28;20505;-79
2022/06/17 08:04:22;;;;;;;15.90;4.65;;;;;;;;;;5029276;28;20060;-79
2022/06/17 08:06:51;;;;;;;16.15;5.18;;;;;;;;;;5020673;28;20117;-78
2022/06/17 08:09:18;;;;;;;17.98;4.78;;;;;;;;;;5018266;28;20579;-79
2022/06/17 08:11:45;;;;;;;13.25;4.95;;;;;;;;;;5020033;28;20117;-78
2022/06/17 08:14:11;;;;;;;14.02;4.60;;;;;;;;;;5023045;28;20026;-78
2022/06/17 08:16:38;;;;;;;11.23;3.75;;;;;;;;;;5019740;28;20037;-78
2022/06/17 08:19:04;;;;;;;8.00;3.55;;;;;;;;;;5020398;28;20467;-79
2022/06/17 08:21:30;;;;;;;11.70;4.15;;;;;;;;;;5014899;28;20034;-79
2022/06/17 08:23:56;;;;;;;13.05;4.50;;;;;;;;;;5017146;28;20065;-78
2022/06/17 08:26:22;;;;;;;10.95;4.75;;;;;;;;;;5017090;28;20049;-78
2022/06/17 08:28:48;;;;;;;9.13;4.50;;;;;;;;;;5015410;28;20042;-79
2022/06/17 08:31:14;;;;;;;12.55;5.30;;;;;;;;;;5020782;28;20041;-79
2022/06/17 08:33:40;;;;;;;13.07;4.80;;;;;;;;;;5012543;28;20033;-79
2022/06/17 08:36:08;;;;;;;10.18;4.63;;;;;;;;;;5012621;28;20079;-79
2022/06/17 08:38:38;;;;;;;12.73;5.05;;;;;;;;;;5011555;28;20100;-78
2022/06/17 08:41:09;;;;;;;11.65;4.13;;;;;;;;;;5020664;28;20510;-78
2022/06/17 08:44:10;;;;;;;16.02;4.20;;;;;;;;;;5021576;28;20165;-78
2022/06/17 08:46:43;;;;;;;16.50;4.07;;;;;;;;;;4982494;28;20061;-79
2022/06/17 08:49:15;;;;;;;11.88;4.45;;;;;;;;;;5008397;28;20076;-79
2022/06/17 08:51:53;;;;;;;10.13;3.63;;;;;;;;;;5020418;28;20120;-79
2022/06/17 08:54:35;;;;;;;9.05;3.83;;;;;;;;;;5014604;28;20032;-78
2022/06/17 08:57:04;;;;;;;8.95;3.53;;;;;;;;;;5023811;28;20033;-78
2022/06/17 08:59:42;;;;;;;11.07;4.13;;;;;;;;;;5017199;28;20045;-78
2022/06/17 09:02:19;;;;;;;8.93;3.88;;;;;;;;;;5019761;28;20038;-79
2022/06/17 09:05:17;;;;;;;10.45;3.90;;;;;;;;;;5018068;28;20375;-79
2022/06/17 09:08:01;;;;;;;16.00;4.18;;;;;;;;;;5010448;28;20068;-79
2022/06/17 09:10:46;;;;;;;10.27;3.50;;;;;;;;;;5018699;28;20152;-79
2022/06/17 09:13:12;;;;;;;9.57;4.38;;;;;;;;;;5015156;28;20088;-78
2022/06/17 09:15:38;;;;;;;13.98;4.05;;;;;;;;;;5018908;28;20033;-79
2022/06/17 09:18:07;;;;;;;11.82;4.35;;;;;;;;;;5015938;28;20380;-79
2022/06/17 09:20:36;;;;;;;9.20;3.85;;;;;;;;;;5014077;28;20056;-79
2022/06/17 09:23:03;;;;;;;16.90;4.72;;;;;;;;;;5021369;28;20119;-78
2022/06/17 09:25:35;;;;;;;7.90;3.50;;;;;;;;;;5018089;28;20022;-79
2022/06/17 09:28:02;;;;;;;8.95;3.72;;;;;;;;;;5016380;28;20030;-79
2022/06/17 09:30:34;;;;;;;9.82;3.45;;;;;;;;;;5014688;28;20038;-79
2022/06/17 09:33:06;;;;;;;9.68;3.33;;;;;;;;;;5011051;28;20033;-79
2022/06/17 09:35:44;;;;;;;8.10;3.13;;;;;;;;;;5013300;28;20544;-79
2022/06/17 09:38:30;;;;;;;9.10;3.63;;;;;;;;;;5015148;28;20033;-79
2022/06/17 09:41:00;;;;;;;10.07;3.47;;;;;;;;;;5012564;28;20520;-79
2022/06/17 09:43:32;;;;;;;9.57;3.75;;;;;;;;;;5020027;28;20641;-79
2022/06/17 09:46:06;;;;;;;18.13;4.57;;;;;;;;;;5024472;28;20069;-79
2022/06/17 09:48:50;;;;;;;14.52;3.40;;;;;;;;;;5021054;28;20034;-79
2022/06/17 09:51:43;;;;;;;8.95;3.15;;;;;;;;;;5010582;28;20065;-79
2022/06/17 09:54:15;;;;;;;11.80;3.88;;;;;;;;;;5010473;28;20050;-79
2022/06/17 09:56:45;;;;;;;6.82;3.17;;;;;;;;;;5024494;28;20034;-79
2022/06/17 09:59:35;;;;;;;7.28;3.13;;;;;;;;;;5024256;28;20025;-79
2022/06/17 10:02:16;;;;;;;11.70;3.22;;;;;;;;;;5025998;28;20076;-79
2022/06/17 10:04:42;;;;;;;7.45;3.10;;;;;;;;;;5023125;28;20037;-79
2022/06/17 10:07:17;;;;;;;9.82;3.13;;;;;;;;;;5019290;28;20646;-79
2022/06/17 10:09:52;;;;;;;10.02;3.40;;;;;;;;;;5024528;28;20045;-79
2022/06/17 10:12:25;;;;;;;7.95;3.15;;;;;;;;;;5019417;28;20132;-79
2022/06/17 10:15:08;;;;;;;11.00;3.38;;;;;;;;;;5020469;28;20471;-79
2022/06/17 10:20:42;;;;;;;11.75;3.00;;;;;;;;;;5019659;28;20103;-79
2022/06/17 10:23:24;;;;;;;12.95;2.92;;;;;;;;;;5021212;28;20120;-79
2022/06/17 10:25:56;;;;;;;9.73;3.03;;;;;;;;;;5025505;28;20582;-79
2022/06/17 10:28:32;;;;;;;14.18;3.33;;;;;;;;;;5016964;28;20025;-79
2022/06/17 10:31:05;;;;;;;7.90;2.63;;;;;;;;;;5019665;28;20400;-79
2022/06/17 10:33:35;;;;;;;10.05;2.85;;;;;;;;;;5015682;28;20045;-79
2022/06/17 10:36:01;;;;;;;7.60;2.55;;;;;;;;;;5014975;28;20025;-79
2022/06/17 10:38:31;;;;;;;11.52;2.90;;;;;;;;;;5016358;28;20033;-79
2022/06/17 10:40:58;;;;;;;10.13;2.77;;;;;;;;;;5019799;28;20899;-79
2022/06/17 10:43:30;;;;;;;13.00;2.83;;;;;;;;;;5012162;28;20034;-79
2022/06/17 10:45:56;;;;;;;9.48;2.92;;;;;;;;;;5022518;28;20079;-79
2022/06/17 10:48:25;;;;;;;13.63;3.38;;;;;;;;;;5017293;28;20071;-79
2022/06/17 10:50:51;;;;;;;19.45;3.85;;;;;;;;;;5020279;28;20081;-79
2022/06/17 10:53:17;;;;;;;9.52;2.88;;;;;;;;;;5013849;28;20061;-79
2022/06/17 10:55:46;;;;;;;13.88;3.10;;;;;;;;;;5021995;28;20057;-79
2022/06/17 10:58:20;;;;;;;10.20;2.30;;;;;;;;;;5020386;28;20033;-79
2022/06/17 11:00:56;;;;;;;10.57;2.80;;;;;;;;;;5013499;28;20395;-79
2022/06/17 11:03:30;;;;;;;11.02;2.22;;;;;;;;;;5016059;28;20038;-79
2022/06/17 11:06:15;;;;;;;8.43;2.33;;;;;;;;;;5015096;28;20025;-79
2022/06/17 11:08:50;;;;;;;15.30;2.95;;;;;;;;;;5014535;28;20842;-79
2022/06/17 11:14:04;;;;;;;13.18;2.95;;;;;;;;;;5022716;28;20132;-79
2022/06/17 11:16:41;;;;;;;10.60;2.80;;;;;;;;;;5016045;28;20030;-79
2022/06/17 11:19:17;;;;;;;9.30;2.53;;;;;;;;;;5013994;28;20033;-79
2022/06/17 11:21:48;;;;;;;12.63;3.00;;;;;;;;;;5029489;28;20036;-79
2022/06/17 11:24:40;;;;;;;21.70;3.22;;;;;;;;;;5026474;28;20044;-79
2022/06/17 11:27:22;;;;;;;12.10;2.88;;;;;;;;;;5015229;28;20041;-79
2022/06/17 11:29:50;;;;;;;9.38;2.92;;;;;;;;;;5018692;28;20189;-79
2022/06/17 11:32:22;;;;;;;13.93;2.80;;;;;;;;;;5015292;28;20108;-79
2022/06/17 11:34:50;;;;;;;10.10;2.63;;;;;;;;;;5024484;28;20045;-79
2022/06/17 11:37:21;;;;;;;11.98;2.72;;;;;;;;;;5016319;28;20037;-79
2022/06/17 11:39:47;;;;;;;7.63;2.47;;;;;;;;;;5025963;28;20034;-79
2022/06/17 11:42:13;;;;;;;8.60;2.75;;;;;;;;;;5018818;28;20025;-79
2022/06/17 11:44:41;;;;;;;11.10;2.40;;;;;;;;;;5022169;28;20124;-79
2022/06/17 11:47:07;;;;;;;6.85;2.03;;;;;;;;;;5014915;28;20460;-79
2022/06/17 11:49:37;;;;;;;7.75;3.03;;;;;;;;;;5014343;28;20060;-79
2022/06/17 11:52:06;;;;;;;12.80;3.05;;;;;;;;;;5014191;28;20022;-79
2022/06/17 11:54:35;;;;;;;6.70;2.30;;;;;;;;;;5018927;28;20034;-79
2022/06/17 11:57:15;;;;;;;16.02;3.45;;;;;;;;;;5016899;28;20037;-79
2022/06/17 11:59:43;;;;;;;12.55;2.53;;;;;;;;;;5015688;28;20112;-79
2022/06/17 12:02:10;;;;;;;17.33;2.83;;;;;;;;;;5012437;28;20871;-79
2022/06/17 12:04:46;;;;;;;8.07;2.22;;;;;;;;;;5015919;28;20129;-79
2022/06/17 12:07:36;;;;;;;9.43;2.75;;;;;;;;;;5018546;28;20861;-79
2022/06/17 12:10:06;;;;;;;7.03;2.13;;;;;;;;;;5019693;28;20077;-79
2022/06/17 12:12:33;;;;;;;8.73;2.22;;;;;;;;;;5018115;28;20037;-79
2022/06/17 12:15:01;;;;;;;13.05;2.72;;;;;;;;;;5014938;28;20038;-79
2022/06/17 12:17:27;;;;;;;12.35;2.30;;;;;;;;;;5013488;28;20040;-79
2022/06/17 12:19:53;;;;;;;7.72;2.03;;;;;;;;;;5021861;28;20037;-79
2022/06/17 12:22:25;;;;;;;12.85;2.35;;;;;;;;;;5021243;28;20486;-79
2022/06/17 12:25:01;;;;;;;13.25;2.55;;;;;;;;;;5022168;28;20065;-79
2022/06/17 12:27:28;;;;;;;12.50;2.60;;;;;;;;;;5014106;28;20487;-79
2022/06/17 12:30:06;;;;;;;8.05;2.38;;;;;;;;;;5023094;28;20029;-79
2022/06/17 12:32:42;;;;;;;10.25;2.25;;;;;;;;;;5025499;28;20026;-79
2022/06/17 12:35:13;;;;;;;4.75;2.00;;;;;;;;;;5019295;28;20113;-79
2022/06/17 12:37:44;;;;;;;11.75;2.38;;;;;;;;;;5013939;28;20034;-79
2022/06/17 12:40:29;;;;;;;12.98;3.08;;;;;;;;;;5018723;28;20030;-79
2022/06/17 12:43:10;;;;;;;7.78;2.15;;;;;;;;;;5016153;28;20236;-79
2022/06/17 12:45:36;;;;;;;14.90;2.88;;;;;;;;;;5015161;28;20045;-78
2022/06/17 12:48:13;;;;;;;8.70;2.35;;;;;;;;;;5014457;28;20026;-79
2022/06/17 12:53:37;;;;;;;9.13;2.35;;;;;;;;;;5019500;28;20080;-79
2022/06/17 12:56:21;;;;;;;8.57;2.03;;;;;;;;;;5014620;28;20034;-80
2022/06/17 12:58:50;;;;;;;6.00;2.28;;;;;;;;;;5017445;28;20034;-79
2022/06/17 13:01:37;;;;;;;15.68;2.47;;;;;;;;;;5015275;28;20058;-79
2022/06/17 13:04:08;;;;;;;8.10;2.13;;;;;;;;;;5007483;28;20376;-79
2022/06/17 13:06:47;;;;;;;6.03;1.88;;;;;;;;;;5021783;28;20059;-79
2022/06/17 13:09:19;;;;;;;11.75;2.33;;;;;;;;;;5019262;28;20089;-79
2022/06/17 13:11:50;;;;;;;8.10;2.15;;;;;;;;;;5019355;28;20018;-79
2022/06/17 13:14:31;;;;;;;14.32;2.55;;;;;;;;;;5024051;28;20050;-79
2022/06/17 13:17:00;;;;;;;11.53;2.40;;;;;;;;;;5022568;28;20743;-79
2022/06/17 13:19:41;;;;;;;9.38;1.73;;;;;;;;;;5010933;28;20037;-79
2022/06/17 13:22:26;;;;;;;6.68;2.30;;;;;;;;;;5017225;28;20025;-79
2022/06/17 13:24:57;;;;;;;6.57;2.05;;;;;;;;;;5020723;28;20038;-79
2022/06/17 13:27:26;;;;;;;10.07;2.33;;;;;;;;;;5020574;28;20037;-79
2022/06/17 13:30:04;;;;;;;7.65;1.90;;;;;;;;;;5023688;28;20079;-79
2022/06/17 13:32:32;;;;;;;6.03;1.95;;;;;;;;;;5018495;28;20029;-79
2022/06/17 13:35:04;;;;;;;9.10;2.08;;;;;;;;;;5021836;28;20041;-79
2022/06/17 13:37:43;;;;;;;10.25;1.77;;;;;;;;;;5013083;28;20100;-79
2022/06/17 13:40:30;;;;;;;5.35;1.63;;;;;;;;;;5018405;28;20265;-79
2022/06/17 13:42:59;;;;;;;6.97;2.03;;;;;;;;;;5013595;28;20034;-79
2022/06/17 13:45:25;;;;;;;7.35;1.80;;;;;;;;;;5022913;28;20427;-79
2022/06/17 13:47:51;;;;;;;6.68;1.63;;;;;;;;;;5020015;28;20087;-80
2022/06/17 13:50:33;;;;;;;7.10;1.83;;;;;;;;;;5016971;28;20476;-79
2022/06/17 13:53:12;;;;;;;4.93;1.92;;;;;;;;;;5017459;28;20025;-79
2022/06/17 13:55:53;;;;;;;7.40;1.50;;;;;;;;;;5017347;28;21395;-79
2022/06/17 13:58:42;;;;;;;6.43;1.33;;;;;;;;;;5016863;28;20041;-79
2022/06/17 14:01:28;;;;;;;5.85;1.42;;;;;;;;;;5015900;28;20075;-79
2022/06/17 14:03:54;;;;;;;7.15;1.42;;;;;;;;;;5018539;28;20042;-79
2022/06/17 14:06:23;;;;;;;5.53;1.33;;;;;;;;;;5017541;28;20037;-79
2022/06/17 14:08:58;;;;;;;6.18;1.27;;;;;;;;;;5019060;28;20659;-79
2022/06/17 14:11:37;;;;;;;5.88;1.20;;;;;;;;;;5015512;28;20065;-79
2022/06/17 14:14:35;;;;;;;12.02;1.83;;;;;;;;;;5020753;28;20033;-79
2022/06/17 14:17:02;;;;;;;4.32;1.30;;;;;;;;;;5003934;28;20045;-79
2022/06/17 14:19:28;;;;;;;4.82;1.40;;;;;;;;;;5019223;28;20125;-79
2022/06/17 14:21:55;;;;;;;5.75;1.27;;;;;;;;;;5018027;28;20113;-79
2022/06/17 14:24:50;;;;;;;6.40;1.52;;;;;;;;;;5020814;28;20034;-79
2022/06/17 14:27:25;;;;;;;10.05;1.50;;;;;;;;;;5016211;28;20057;-79
2022/06/17 14:30:10;;;;;;;6.15;1.40;;;;;;;;;;5022792;28;20113;-79
2022/06/17 14:32:51;;;;;;;7.53;1.10;;;;;;;;;;5017407;28;20030;-79
2022/06/17 14:35:29;;;;;;;5.00;1.30;;;;;;;;;;5014007;28;20080;-79
2022/06/17 14:38:13;;;;;;;6.30;1.60;;;;;;;;;;5020260;28;20036;-79
2022/06/17 14:43:47;;;;;;;6.25;1.60;;;;;;;;;;4986179;28;20074;-79
2022/06/17 14:46:13;;;;;;;5.57;1.42;;;;;;;;;;5013116;28;20118;-79
2022/06/17 14:48:42;;;;;;;9.13;1.60;;;;;;;;;;5017554;28;20080;-79
2022/06/17 14:51:32;;;;;;;6.72;1.23;;;;;;;;;;5011729;28;20026;-79
2022/06/17 14:54:02;;;;;;;10.25;1.30;;;;;;;;;;5021822;28;20731;-79
2022/06/17 14:56:37;;;;;;;7.93;1.30;;;;;;;;;;5021323;28;20488;-79
2022/06/17 14:59:13;;;;;;;6.38;1.38;;;;;;;;;;5019105;28;20923;-79
2022/06/17 15:01:44;;;;;;;6.82;1.13;;;;;;;;;;5020722;28;20052;-80
2022/06/17 15:04:19;;;;;;;5.20;1.88;;;;;;;;;;5026346;28;20505;-79
2022/06/17 15:06:45;;;;;;;6.43;1.25;;;;;;;;;;5032930;28;20628;-79
2022/06/17 15:09:23;;;;;;;4.50;1.15;;;;;;;;;;5020712;28;20049;-79
2022/06/17 15:11:55;;;;;;;4.30;1.27;;;;;;;;;;5020205;28;20038;-79
2022/06/17 15:14:21;;;;;;;10.02;1.02;;;;;;;;;;5012597;28;20072;-79
2022/06/17 15:16:51;;;;;;;5.32;1.00;;;;;;;;;;5020341;28;20418;-80
2022/06/17 15:19:20;;;;;;;9.05;1.75;;;;;;;;;;5021343;28;20123;-79